createdAt,value
2017-09-22T00:00:06.282Z,0
2017-09-22T00:01:07.671Z,0
2017-09-22T00:02:09.378Z,0
2017-09-22T00:03:10.739Z,0
2017-09-22T00:04:12.059Z,0
2017-09-22T00:05:13.417Z,0
2017-09-22T00:06:14.739Z,0
2017-09-22T00:07:17.372Z,0
2017-09-22T00:08:18.695Z,0
2017-09-22T00:09:20.185Z,0
2017-09-22T00:10:21.510Z,0
2017-09-22T00:11:22.879Z,0
2017-09-22T00:12:24.213Z,0
2017-09-22T00:13:25.554Z,0
2017-09-22T00:14:26.889Z,0
2017-09-22T00:15:28.618Z,0
2017-09-22T00:16:29.949Z,0
2017-09-22T00:17:31.694Z,0
2017-09-22T00:18:33.018Z,0
2017-09-22T00:19:34.405Z,0
2017-09-22T00:20:35.733Z,0
2017-09-22T00:21:37.084Z,0
2017-09-22T00:22:38.423Z,0
2017-09-22T00:23:39.764Z,0
2017-09-22T00:24:41.463Z,0
2017-09-22T00:25:42.846Z,0
2017-09-22T00:26:44.177Z,0
2017-09-22T00:27:45.907Z,0
2017-09-22T00:28:47.231Z,0
2017-09-22T00:29:48.615Z,0
2017-09-22T00:30:49.934Z,0
2017-09-22T00:31:51.283Z,0
2017-09-22T00:32:52.997Z,0
2017-09-22T00:33:54.751Z,0
2017-09-22T00:34:56.097Z,0
2017-09-22T00:35:57.460Z,0
2017-09-22T00:36:58.802Z,0
2017-09-22T00:38:00.239Z,0
2017-09-22T00:39:01.565Z,0
2017-09-22T00:40:02.923Z,0
2017-09-22T00:41:04.247Z,0
2017-09-22T00:42:05.683Z,0
2017-09-22T00:43:07.402Z,0
2017-09-22T00:44:08.790Z,0
2017-09-22T00:45:10.875Z,0
2017-09-22T00:46:12.278Z,0
2017-09-22T00:47:14.205Z,0
2017-09-22T00:48:15.573Z,0
2017-09-22T00:49:16.891Z,0
2017-09-22T00:50:18.249Z,0
2017-09-22T00:51:19.569Z,0
2017-09-22T00:52:20.925Z,0
2017-09-22T00:53:22.248Z,0
2017-09-22T00:54:23.603Z,0
2017-09-22T00:55:24.927Z,0
2017-09-22T00:56:26.279Z,0
2017-09-22T00:57:27.612Z,0
2017-09-22T00:58:29.004Z,0
2017-09-22T00:59:30.290Z,0
2017-09-22T01:00:31.637Z,0
2017-09-22T01:01:32.960Z,0
2017-09-22T01:02:34.311Z,0
2017-09-22T01:03:35.638Z,0
2017-09-22T01:04:37.365Z,0
2017-09-22T01:05:38.703Z,0
2017-09-22T01:06:40.362Z,0
2017-09-22T01:07:41.697Z,0
2017-09-22T01:08:43.823Z,0
2017-09-22T01:09:45.141Z,0
2017-09-22T01:10:46.582Z,0
2017-09-22T01:11:48.669Z,0
2017-09-22T01:12:50.072Z,0
2017-09-22T01:13:51.388Z,0
2017-09-22T01:14:52.832Z,0
2017-09-22T01:15:54.160Z,0
2017-09-22T01:16:55.512Z,0
2017-09-22T01:17:57.220Z,0
2017-09-22T01:18:59.365Z,0
2017-09-22T01:20:01.064Z,0
2017-09-22T01:21:02.895Z,0
2017-09-22T01:22:05.010Z,0
2017-09-22T01:23:06.468Z,0
2017-09-22T01:24:08.185Z,0
2017-09-22T01:25:09.599Z,0
2017-09-22T01:26:10.921Z,0
2017-09-22T01:27:12.273Z,0
2017-09-22T01:28:13.996Z,0
2017-09-22T01:29:15.739Z,0
2017-09-22T01:30:17.063Z,0
2017-09-22T01:31:18.448Z,0
2017-09-22T01:32:19.771Z,0
2017-09-22T01:33:21.125Z,0
2017-09-22T01:34:22.818Z,0
2017-09-22T01:35:24.590Z,0
2017-09-22T01:36:25.915Z,0
2017-09-22T01:37:27.679Z,0
2017-09-22T01:38:29.387Z,0
2017-09-22T01:39:30.766Z,0
2017-09-22T01:40:32.479Z,0
2017-09-22T01:41:33.882Z,0
2017-09-22T01:42:35.221Z,0
2017-09-22T01:43:36.595Z,0
2017-09-22T01:44:37.882Z,0
2017-09-22T01:45:39.234Z,0
2017-09-22T01:46:40.560Z,0
2017-09-22T01:47:41.913Z,0
2017-09-22T01:48:43.235Z,0
2017-09-22T01:49:44.591Z,0
2017-09-22T01:50:45.917Z,0
2017-09-22T01:51:47.266Z,0
2017-09-22T01:52:48.588Z,0
2017-09-22T01:53:49.943Z,0
2017-09-22T01:54:51.266Z,0
2017-09-22T01:55:52.621Z,0
2017-09-22T01:56:53.944Z,0
2017-09-22T01:57:55.684Z,0
2017-09-22T01:58:57.010Z,0
2017-09-22T01:59:58.384Z,0
2017-09-22T02:00:59.712Z,0
2017-09-22T02:02:01.082Z,0
2017-09-22T02:03:02.424Z,0
2017-09-22T02:04:03.906Z,0
2017-09-22T02:05:05.226Z,0
2017-09-22T02:06:06.618Z,0
2017-09-22T02:07:07.950Z,0
2017-09-22T02:08:09.299Z,0
2017-09-22T02:09:11.000Z,0
2017-09-22T02:10:12.384Z,0
2017-09-22T02:11:13.706Z,0
2017-09-22T02:12:15.061Z,0
2017-09-22T02:13:16.388Z,0
2017-09-22T02:14:17.743Z,0
2017-09-22T02:15:19.083Z,0
2017-09-22T02:16:20.902Z,0
2017-09-22T02:17:22.242Z,0
2017-09-22T02:18:23.989Z,0
2017-09-22T02:19:25.311Z,0
2017-09-22T02:20:26.700Z,0
2017-09-22T02:21:28.027Z,0
2017-09-22T02:22:29.383Z,0
2017-09-22T02:23:30.705Z,0
2017-09-22T02:24:32.050Z,0
2017-09-22T02:25:33.371Z,0
2017-09-22T02:26:35.106Z,0
2017-09-22T02:27:36.440Z,0
2017-09-22T02:28:37.867Z,0
2017-09-22T02:29:39.184Z,0
2017-09-22T02:30:40.621Z,0
2017-09-22T02:31:41.965Z,0
2017-09-22T02:32:43.751Z,0
2017-09-22T02:33:45.074Z,0
2017-09-22T02:34:46.458Z,0
2017-09-22T02:35:47.834Z,0
2017-09-22T02:36:49.196Z,0
2017-09-22T02:37:50.525Z,0
2017-09-22T02:38:51.913Z,0
2017-09-22T02:39:53.188Z,0
2017-09-22T02:40:54.589Z,0
2017-09-22T02:41:56.302Z,0
2017-09-22T02:42:57.677Z,0
2017-09-22T02:43:59.001Z,0
2017-09-22T02:45:00.351Z,0
2017-09-22T02:46:01.734Z,0
2017-09-22T02:47:03.136Z,0
2017-09-22T02:48:04.458Z,0
2017-09-22T02:49:05.818Z,0
2017-09-22T02:50:07.147Z,0
2017-09-22T02:51:08.488Z,0
2017-09-22T02:52:09.811Z,0
2017-09-22T02:53:11.163Z,0
2017-09-22T02:54:12.493Z,0
2017-09-22T02:55:13.843Z,0
2017-09-22T02:56:15.167Z,0
2017-09-22T02:57:16.520Z,0
2017-09-22T02:58:17.859Z,0
2017-09-22T02:59:19.196Z,0
2017-09-22T03:00:20.920Z,0
2017-09-22T03:01:22.286Z,0
2017-09-22T03:02:23.611Z,0
2017-09-22T03:03:24.959Z,0
2017-09-22T03:04:26.284Z,0
2017-09-22T03:05:27.645Z,0
2017-09-22T03:06:29.359Z,0
2017-09-22T03:07:30.750Z,0
2017-09-22T03:08:32.098Z,0
2017-09-22T03:09:33.503Z,0
2017-09-22T03:10:34.822Z,0
2017-09-22T03:11:36.565Z,0
2017-09-22T03:12:37.901Z,0
2017-09-22T03:13:39.266Z,0
2017-09-22T03:14:40.588Z,0
2017-09-22T03:15:41.949Z,0
2017-09-22T03:16:43.263Z,0
2017-09-22T03:17:44.622Z,0
2017-09-22T03:18:45.945Z,0
2017-09-22T03:19:47.303Z,0
2017-09-22T03:20:48.620Z,0
2017-09-22T03:21:49.976Z,0
2017-09-22T03:22:51.306Z,0
2017-09-22T03:23:52.653Z,0
2017-09-22T03:24:53.976Z,0
2017-09-22T03:25:55.330Z,0
2017-09-22T03:26:57.050Z,0
2017-09-22T03:27:58.416Z,0
2017-09-22T03:28:59.736Z,0
2017-09-22T03:30:01.095Z,0
2017-09-22T03:31:02.418Z,0
2017-09-22T03:32:03.770Z,0
2017-09-22T03:33:05.095Z,0
2017-09-22T03:34:06.453Z,0
2017-09-22T03:35:07.774Z,0
2017-09-22T03:36:09.126Z,0
2017-09-22T03:37:10.450Z,0
2017-09-22T03:38:11.799Z,0
2017-09-22T03:39:13.128Z,0
2017-09-22T03:40:14.480Z,0
2017-09-22T03:41:15.808Z,0
2017-09-22T03:42:17.161Z,0
2017-09-22T03:43:18.480Z,0
2017-09-22T03:44:19.834Z,0
2017-09-22T03:45:21.211Z,0
2017-09-22T03:46:22.647Z,0
2017-09-22T03:47:23.940Z,0
2017-09-22T03:48:25.292Z,0
2017-09-22T03:49:26.613Z,0
2017-09-22T03:50:27.967Z,0
2017-09-22T03:51:29.291Z,0
2017-09-22T03:52:30.647Z,0
2017-09-22T03:53:31.971Z,0
2017-09-22T03:54:33.325Z,0
2017-09-22T03:55:34.643Z,0
2017-09-22T03:56:35.999Z,0
2017-09-22T03:57:37.325Z,0
2017-09-22T03:58:38.711Z,0
2017-09-22T03:59:40.062Z,0
2017-09-22T04:00:41.456Z,0
2017-09-22T04:01:42.783Z,0
2017-09-22T04:02:44.139Z,0
2017-09-22T04:03:45.462Z,0
2017-09-22T04:04:46.840Z,0
2017-09-22T04:05:48.171Z,0
2017-09-22T04:06:49.591Z,0
2017-09-22T04:07:50.911Z,0
2017-09-22T04:08:52.267Z,0
2017-09-22T04:09:53.593Z,0
2017-09-22T04:10:54.985Z,0
2017-09-22T04:11:56.318Z,0
2017-09-22T04:12:58.507Z,0
2017-09-22T04:13:59.827Z,0
2017-09-22T04:15:01.220Z,0
2017-09-22T04:16:02.552Z,0
2017-09-22T04:17:03.896Z,0
2017-09-22T04:18:05.216Z,0
2017-09-22T04:19:06.592Z,0
2017-09-22T04:20:08.293Z,0
2017-09-22T04:21:09.662Z,0
2017-09-22T04:22:10.982Z,0
2017-09-22T04:23:12.341Z,0
2017-09-22T04:24:13.663Z,0
2017-09-22T04:25:15.021Z,0
2017-09-22T04:26:16.340Z,0
2017-09-22T04:27:17.698Z,0
2017-09-22T04:28:19.021Z,0
2017-09-22T04:29:20.378Z,0
2017-09-22T04:30:21.708Z,0
2017-09-22T04:31:23.058Z,0
2017-09-22T04:32:24.396Z,0
2017-09-22T04:33:26.203Z,0
2017-09-22T04:34:27.523Z,0
2017-09-22T04:35:29.299Z,0
2017-09-22T04:36:30.630Z,0
2017-09-22T04:37:32.001Z,0
2017-09-22T04:38:33.320Z,0
2017-09-22T04:39:34.675Z,0
2017-09-22T04:40:35.998Z,0
2017-09-22T04:41:37.353Z,0
2017-09-22T04:42:38.726Z,0
2017-09-22T04:43:40.545Z,0
2017-09-22T04:44:41.857Z,0
2017-09-22T04:45:43.619Z,0
2017-09-22T04:46:44.935Z,0
2017-09-22T04:47:46.304Z,4
2017-09-22T04:48:48.017Z,4
2017-09-22T04:49:49.393Z,4
2017-09-22T04:50:50.724Z,4
2017-09-22T04:51:52.080Z,4
2017-09-22T04:52:53.403Z,8
2017-09-22T04:53:54.751Z,8
2017-09-22T04:54:56.083Z,8
2017-09-22T04:55:57.423Z,8
2017-09-22T04:56:58.749Z,12
2017-09-22T04:58:00.106Z,16
2017-09-22T04:59:01.425Z,20
2017-09-22T05:00:02.788Z,24
2017-09-22T05:01:04.101Z,28
2017-09-22T05:02:05.459Z,32
2017-09-22T05:03:06.785Z,44
2017-09-22T05:04:08.138Z,48
2017-09-22T05:05:09.461Z,60
2017-09-22T05:06:10.816Z,68
2017-09-22T05:07:12.170Z,80
2017-09-22T05:08:13.592Z,96
2017-09-22T05:09:14.917Z,108
2017-09-22T05:10:16.270Z,124
2017-09-22T05:11:17.597Z,144
2017-09-22T05:12:18.949Z,164
2017-09-22T05:13:20.273Z,184
2017-09-22T05:14:21.626Z,208
2017-09-22T05:15:22.946Z,232
2017-09-22T05:16:24.303Z,264
2017-09-22T05:17:25.627Z,292
2017-09-22T05:18:26.981Z,324
2017-09-22T05:19:28.312Z,360
2017-09-22T05:20:29.632Z,400
2017-09-22T05:21:30.994Z,436
2017-09-22T05:22:32.324Z,476
2017-09-22T05:23:33.775Z,520
2017-09-22T05:24:35.189Z,568
2017-09-22T05:25:36.553Z,616
2017-09-22T05:26:37.952Z,664
2017-09-22T05:27:39.330Z,720
2017-09-22T05:28:40.657Z,772
2017-09-22T05:29:42.009Z,836
2017-09-22T05:30:43.332Z,896
2017-09-22T05:31:44.698Z,960
2017-09-22T05:32:46.023Z,1024
2017-09-22T05:33:47.367Z,1084
2017-09-22T05:34:48.741Z,1144
2017-09-22T05:35:50.155Z,1196
2017-09-22T05:36:51.475Z,1260
2017-09-22T05:37:52.863Z,1316
2017-09-22T05:38:54.195Z,1376
2017-09-22T05:39:55.602Z,1436
2017-09-22T05:40:56.935Z,1504
2017-09-22T05:41:58.289Z,1576
2017-09-22T05:42:59.605Z,1648
2017-09-22T05:44:01.337Z,1728
2017-09-22T05:45:02.698Z,1800
2017-09-22T05:46:04.427Z,1876
2017-09-22T05:47:05.765Z,1948
2017-09-22T05:48:07.149Z,2020
2017-09-22T05:49:08.472Z,2080
2017-09-22T05:50:09.950Z,2124
2017-09-22T05:51:11.272Z,2188
2017-09-22T05:52:12.692Z,2284
2017-09-22T05:53:14.019Z,2392
2017-09-22T05:54:15.411Z,2500
2017-09-22T05:55:17.111Z,2612
2017-09-22T05:56:18.453Z,2696
2017-09-22T05:57:19.827Z,2724
2017-09-22T05:58:21.647Z,2724
2017-09-22T05:59:23.028Z,2732
2017-09-22T06:00:24.421Z,2764
2017-09-22T06:01:25.794Z,2820
2017-09-22T06:02:27.200Z,2892
2017-09-22T06:03:28.594Z,2992
2017-09-22T06:04:29.980Z,3108
2017-09-22T06:05:31.362Z,3236
2017-09-22T06:06:32.760Z,3372
2017-09-22T06:07:34.129Z,3516
2017-09-22T06:08:35.541Z,3680
2017-09-22T06:09:36.948Z,3884
2017-09-22T06:10:38.325Z,4144
2017-09-22T06:11:39.699Z,4440
2017-09-22T06:12:41.099Z,4712
2017-09-22T06:13:42.467Z,4956
2017-09-22T06:14:43.885Z,5180
2017-09-22T06:15:45.641Z,5328
2017-09-22T06:16:47.068Z,5384
2017-09-22T06:17:48.448Z,5552
2017-09-22T06:18:50.217Z,5772
2017-09-22T06:19:51.589Z,5944
2017-09-22T06:20:53.036Z,6164
2017-09-22T06:21:54.786Z,6272
2017-09-22T06:22:56.225Z,6336
2017-09-22T06:23:57.607Z,6308
2017-09-22T06:24:59.028Z,6316
2017-09-22T06:26:00.682Z,6380
2017-09-22T06:27:02.093Z,6376
2017-09-22T06:28:03.836Z,6608
2017-09-22T06:29:05.284Z,6768
2017-09-22T06:30:06.660Z,6860
2017-09-22T06:31:08.068Z,7008
2017-09-22T06:32:09.448Z,7060
2017-09-22T06:33:11.218Z,7128
2017-09-22T06:34:12.593Z,7164
2017-09-22T06:35:14.041Z,7176
2017-09-22T06:36:15.409Z,7276
2017-09-22T06:37:16.813Z,7340
2017-09-22T06:38:18.185Z,7376
2017-09-22T06:39:19.612Z,7420
2017-09-22T06:40:20.979Z,7772
2017-09-22T06:41:22.367Z,8044
2017-09-22T06:42:23.739Z,8368
2017-09-22T06:43:25.165Z,10408
2017-09-22T06:44:26.560Z,15712
2017-09-22T06:45:28.044Z,15776
2017-09-22T06:46:29.416Z,15712
2017-09-22T06:47:30.814Z,16544
2017-09-22T06:48:32.242Z,16960
2017-09-22T06:49:33.591Z,17056
2017-09-22T06:50:34.967Z,13876
2017-09-22T06:51:36.376Z,14664
2017-09-22T06:52:37.766Z,18208
2017-09-22T06:53:39.250Z,18624
2017-09-22T06:54:40.627Z,18880
2017-09-22T06:55:42.035Z,19968
2017-09-22T06:56:43.451Z,21344
2017-09-22T06:57:44.927Z,20896
2017-09-22T06:58:46.318Z,20704
2017-09-22T06:59:47.795Z,21504
2017-09-22T07:00:49.172Z,21568
2017-09-22T07:01:50.580Z,23936
2017-09-22T07:02:51.956Z,23744
2017-09-22T07:03:53.355Z,22240
2017-09-22T07:04:54.737Z,22752
2017-09-22T07:05:56.138Z,22336
2017-09-22T07:06:57.510Z,22752
2017-09-22T07:07:58.911Z,23072
2017-09-22T07:09:00.288Z,24160
2017-09-22T07:10:01.695Z,27104
2017-09-22T07:11:03.073Z,26240
2017-09-22T07:12:04.477Z,26848
2017-09-22T07:13:05.860Z,27520
2017-09-22T07:14:07.254Z,28640
2017-09-22T07:15:08.631Z,24960
2017-09-22T07:16:10.033Z,23008
2017-09-22T07:17:11.407Z,23744
2017-09-22T07:18:12.824Z,22656
2017-09-22T07:19:14.232Z,24928
2017-09-22T07:20:15.693Z,26304
2017-09-22T07:21:17.120Z,28480
2017-09-22T07:22:18.574Z,27680
2017-09-22T07:23:19.960Z,28032
2017-09-22T07:24:21.344Z,28480
2017-09-22T07:25:22.737Z,30976
2017-09-22T07:26:24.141Z,30688
2017-09-22T07:27:25.528Z,29024
2017-09-22T07:28:27.015Z,27424
2017-09-22T07:29:28.397Z,24128
2017-09-22T07:30:29.799Z,28960
2017-09-22T07:31:31.177Z,30208
2017-09-22T07:32:32.576Z,31552
2017-09-22T07:33:33.958Z,32160
2017-09-22T07:34:35.355Z,33344
2017-09-22T07:35:36.734Z,32864
2017-09-22T07:36:38.135Z,28544
2017-09-22T07:37:39.519Z,30592
2017-09-22T07:38:40.913Z,27392
2017-09-22T07:39:42.291Z,27392
2017-09-22T07:40:43.692Z,24864
2017-09-22T07:41:45.073Z,27136
2017-09-22T07:42:46.482Z,28000
2017-09-22T07:43:47.847Z,26688
2017-09-22T07:44:49.354Z,23552
2017-09-22T07:45:50.729Z,25440
2017-09-22T07:46:52.133Z,21984
2017-09-22T07:47:53.513Z,20096
2017-09-22T07:48:54.913Z,20064
2017-09-22T07:49:56.293Z,19104
2017-09-22T07:50:57.693Z,19584
2017-09-22T07:51:59.079Z,22304
2017-09-22T07:53:00.471Z,24064
2017-09-22T07:54:01.862Z,22976
2017-09-22T07:55:03.250Z,15764
2017-09-22T07:56:04.640Z,21888
2017-09-22T07:57:06.034Z,21504
2017-09-22T07:58:07.427Z,20576
2017-09-22T07:59:08.810Z,22976
2017-09-22T08:00:10.202Z,29568
2017-09-22T08:01:11.599Z,33920
2017-09-22T08:02:12.980Z,26048
2017-09-22T08:03:14.471Z,22272
2017-09-22T08:04:15.857Z,23744
2017-09-22T08:05:17.252Z,22560
2017-09-22T08:06:18.633Z,21696
2017-09-22T08:07:20.031Z,21440
2017-09-22T08:08:21.420Z,22208
2017-09-22T08:09:22.810Z,21280
2017-09-22T08:10:24.218Z,20992
2017-09-22T08:11:25.693Z,22208
2017-09-22T08:12:27.073Z,22528
2017-09-22T08:13:28.473Z,21536
2017-09-22T08:14:30.136Z,22432
2017-09-22T08:15:31.559Z,23232
2017-09-22T08:16:32.942Z,22080
2017-09-22T08:17:34.340Z,22432
2017-09-22T08:18:35.720Z,22816
2017-09-22T08:19:37.136Z,22368
2017-09-22T08:20:38.520Z,19520
2017-09-22T08:21:39.999Z,22752
2017-09-22T08:22:41.381Z,22048
2017-09-22T08:23:42.780Z,20576
2017-09-22T08:24:44.291Z,20576
2017-09-22T08:25:46.151Z,23424
2017-09-22T08:26:47.549Z,23104
2017-09-22T08:27:48.952Z,24384
2017-09-22T08:28:50.339Z,24288
2017-09-22T08:29:51.773Z,22848
2017-09-22T08:30:53.153Z,21472
2017-09-22T08:31:54.618Z,22624
2017-09-22T08:32:55.998Z,23616
2017-09-22T08:33:57.402Z,24064
2017-09-22T08:34:58.855Z,23744
2017-09-22T08:36:00.278Z,23904
2017-09-22T08:37:01.665Z,23840
2017-09-22T08:38:03.160Z,25344
2017-09-22T08:39:04.531Z,24576
2017-09-22T08:40:05.940Z,26240
2017-09-22T08:41:07.391Z,25728
2017-09-22T08:42:08.831Z,24256
2017-09-22T08:43:10.206Z,26304
2017-09-22T08:44:11.605Z,30016
2017-09-22T08:45:12.990Z,31072
2017-09-22T08:46:14.494Z,33024
2017-09-22T08:47:15.894Z,32992
2017-09-22T08:48:17.428Z,35968
2017-09-22T08:49:18.822Z,31264
2017-09-22T08:50:20.262Z,30720
2017-09-22T08:51:21.673Z,31360
2017-09-22T08:52:23.130Z,31104
2017-09-22T08:53:24.520Z,31616
2017-09-22T08:54:26.014Z,30336
2017-09-22T08:55:27.452Z,30144
2017-09-22T08:56:28.889Z,30528
2017-09-22T08:57:30.314Z,28128
2017-09-22T08:58:31.824Z,28128
2017-09-22T08:59:33.217Z,28096
2017-09-22T09:00:34.656Z,28480
2017-09-22T09:01:36.041Z,28512
2017-09-22T09:02:37.437Z,29216
2017-09-22T09:03:38.821Z,30048
2017-09-22T09:04:40.217Z,31552
2017-09-22T09:05:41.657Z,32576
2017-09-22T09:06:43.096Z,33600
2017-09-22T09:07:44.481Z,34208
2017-09-22T09:08:45.974Z,34560
2017-09-22T09:09:47.360Z,34944
2017-09-22T09:10:48.758Z,38112
2017-09-22T09:11:50.140Z,35904
2017-09-22T09:12:51.537Z,39008
2017-09-22T09:13:52.951Z,34176
2017-09-22T09:14:54.419Z,35040
2017-09-22T09:15:55.800Z,37632
2017-09-22T09:16:57.195Z,35168
2017-09-22T09:17:58.605Z,36352
2017-09-22T09:19:00.084Z,38240
2017-09-22T09:20:01.476Z,36384
2017-09-22T09:21:02.858Z,35456
2017-09-22T09:22:04.275Z,35232
2017-09-22T09:23:05.736Z,34464
2017-09-22T09:24:07.127Z,34240
2017-09-22T09:25:08.525Z,34464
2017-09-22T09:26:09.908Z,34656
2017-09-22T09:27:11.714Z,34592
2017-09-22T09:28:13.090Z,34880
2017-09-22T09:29:14.511Z,34976
2017-09-22T09:30:15.901Z,34848
2017-09-22T09:31:17.400Z,34432
2017-09-22T09:32:18.777Z,33920
2017-09-22T09:33:20.256Z,33184
2017-09-22T09:34:21.636Z,32672
2017-09-22T09:35:23.036Z,32192
2017-09-22T09:36:24.465Z,31968
2017-09-22T09:37:25.916Z,31648
2017-09-22T09:38:27.306Z,31520
2017-09-22T09:39:28.696Z,31648
2017-09-22T09:40:30.078Z,31936
2017-09-22T09:41:31.477Z,32288
2017-09-22T09:42:32.860Z,32640
2017-09-22T09:43:34.253Z,33056
2017-09-22T09:44:35.633Z,33632
2017-09-22T09:45:37.137Z,35008
2017-09-22T09:46:38.522Z,35232
2017-09-22T09:47:40.030Z,35936
2017-09-22T09:48:41.420Z,39520
2017-09-22T09:49:42.902Z,42944
2017-09-22T09:50:44.285Z,52032
2017-09-22T09:51:45.692Z,55776
2017-09-22T09:52:47.076Z,49984
2017-09-22T09:53:48.588Z,47008
2017-09-22T09:54:49.967Z,43648
2017-09-22T09:55:51.830Z,52576
2017-09-22T09:56:53.218Z,53184
2017-09-22T09:57:54.635Z,56192
2017-09-22T09:58:56.082Z,56672
2017-09-22T09:59:57.512Z,53216
2017-09-22T10:00:58.915Z,43552
2017-09-22T10:02:00.402Z,42944
2017-09-22T10:03:01.796Z,42848
2017-09-22T10:04:03.174Z,37952
2017-09-22T10:05:04.564Z,41760
2017-09-22T10:06:06.064Z,41216
2017-09-22T10:07:07.479Z,42240
2017-09-22T10:08:08.940Z,40864
2017-09-22T10:09:10.324Z,42336
2017-09-22T10:10:11.722Z,41536
2017-09-22T10:11:13.109Z,42080
2017-09-22T10:12:14.602Z,41312
2017-09-22T10:13:15.985Z,40352
2017-09-22T10:14:17.490Z,40992
2017-09-22T10:15:18.874Z,40544
2017-09-22T10:16:20.365Z,42752
2017-09-22T10:17:21.773Z,45568
2017-09-22T10:18:23.297Z,49408
2017-09-22T10:19:24.684Z,51200
2017-09-22T10:20:26.140Z,51584
2017-09-22T10:21:27.522Z,51296
2017-09-22T10:22:29.062Z,48192
2017-09-22T10:23:30.454Z,46592
2017-09-22T10:24:31.895Z,47008
2017-09-22T10:25:33.282Z,48192
2017-09-22T10:26:34.676Z,45216
2017-09-22T10:27:36.062Z,41056
2017-09-22T10:28:37.554Z,38208
2017-09-22T10:29:38.993Z,37440
2017-09-22T10:30:40.443Z,36160
2017-09-22T10:31:41.823Z,35520
2017-09-22T10:32:43.315Z,34752
2017-09-22T10:33:44.706Z,34176
2017-09-22T10:34:46.229Z,33312
2017-09-22T10:35:47.632Z,32736
2017-09-22T10:36:49.083Z,32224
2017-09-22T10:37:50.466Z,31744
2017-09-22T10:38:51.992Z,31424
2017-09-22T10:39:53.381Z,30912
2017-09-22T10:40:54.843Z,30560
2017-09-22T10:41:56.231Z,30336
2017-09-22T10:42:57.730Z,30208
2017-09-22T10:43:59.115Z,30112
2017-09-22T10:45:00.510Z,30144
2017-09-22T10:46:01.893Z,30240
2017-09-22T10:47:03.408Z,30592
2017-09-22T10:48:04.817Z,31104
2017-09-22T10:49:06.541Z,31744
2017-09-22T10:50:08.079Z,32416
2017-09-22T10:51:09.499Z,32928
2017-09-22T10:52:10.926Z,33440
2017-09-22T10:53:12.607Z,33952
2017-09-22T10:54:14.057Z,34624
2017-09-22T10:55:15.756Z,35392
2017-09-22T10:56:17.131Z,36032
2017-09-22T10:57:18.620Z,36480
2017-09-22T10:58:20.001Z,38208
2017-09-22T10:59:21.398Z,37888
2017-09-22T11:00:22.780Z,38176
2017-09-22T11:01:24.181Z,39008
2017-09-22T11:02:25.563Z,38848
2017-09-22T11:03:26.995Z,39424
2017-09-22T11:04:28.389Z,40096
2017-09-22T11:05:29.855Z,40672
2017-09-22T11:06:31.240Z,40640
2017-09-22T11:07:32.723Z,40544
2017-09-22T11:08:34.096Z,40864
2017-09-22T11:09:35.604Z,41088
2017-09-22T11:10:36.993Z,40160
2017-09-22T11:11:38.554Z,39872
2017-09-22T11:12:39.939Z,39520
2017-09-22T11:13:41.400Z,39872
2017-09-22T11:14:42.784Z,40032
2017-09-22T11:15:44.254Z,41280
2017-09-22T11:16:45.638Z,42720
2017-09-22T11:17:47.136Z,42720
2017-09-22T11:18:48.616Z,44096
2017-09-22T11:19:50.023Z,46464
2017-09-22T11:20:51.449Z,44128
2017-09-22T11:21:52.900Z,43200
2017-09-22T11:22:54.282Z,44576
2017-09-22T11:23:55.675Z,44608
2017-09-22T11:24:57.058Z,46112
2017-09-22T11:25:58.453Z,44384
2017-09-22T11:26:59.844Z,45024
2017-09-22T11:28:01.335Z,45600
2017-09-22T11:29:02.787Z,46656
2017-09-22T11:30:04.251Z,45728
2017-09-22T11:31:05.633Z,45472
2017-09-22T11:32:07.102Z,45760
2017-09-22T11:33:08.501Z,44992
2017-09-22T11:34:09.880Z,46464
2017-09-22T11:35:11.266Z,47680
2017-09-22T11:36:12.657Z,49344
2017-09-22T11:37:14.041Z,50848
2017-09-22T11:38:15.696Z,51712
2017-09-22T11:39:17.107Z,44000
2017-09-22T11:40:18.527Z,46496
2017-09-22T11:41:20.306Z,49280
2017-09-22T11:42:22.106Z,44992
2017-09-22T11:43:23.485Z,42592
2017-09-22T11:44:24.916Z,45728
2017-09-22T11:45:26.290Z,52864
2017-09-22T11:46:27.787Z,51264
2017-09-22T11:47:29.175Z,45856
2017-09-22T11:48:30.707Z,43904
2017-09-22T11:49:32.086Z,41888
2017-09-22T11:50:33.557Z,41760
2017-09-22T11:51:34.940Z,41824
2017-09-22T11:52:36.452Z,41152
2017-09-22T11:53:37.874Z,40096
2017-09-22T11:54:39.356Z,39744
2017-09-22T11:55:41.698Z,41056
2017-09-22T11:56:43.562Z,41056
2017-09-22T11:57:44.943Z,42080
2017-09-22T11:58:46.474Z,45024
2017-09-22T11:59:47.872Z,48128
2017-09-22T12:00:49.290Z,52192
2017-09-22T12:01:50.693Z,48288
2017-09-22T12:02:52.172Z,47264
2017-09-22T12:03:53.617Z,43520
2017-09-22T12:04:55.049Z,41120
2017-09-22T12:05:56.446Z,39648
2017-09-22T12:06:57.958Z,38624
2017-09-22T12:07:59.338Z,37632
2017-09-22T12:09:00.837Z,37312
2017-09-22T12:10:02.226Z,35904
2017-09-22T12:11:03.706Z,34560
2017-09-22T12:12:05.128Z,34400
2017-09-22T12:13:07.065Z,35456
2017-09-22T12:14:08.528Z,35904
2017-09-22T12:15:10.018Z,38592
2017-09-22T12:16:11.408Z,41920
2017-09-22T12:17:12.895Z,47680
2017-09-22T12:18:14.319Z,54912
2017-09-22T12:19:15.766Z,51520
2017-09-22T12:20:17.163Z,46464
2017-09-22T12:21:18.765Z,49408
2017-09-22T12:22:20.429Z,49120
2017-09-22T12:23:21.948Z,48544
2017-09-22T12:24:23.357Z,50112
2017-09-22T12:25:24.866Z,47968
2017-09-22T12:26:26.217Z,51936
2017-09-22T12:27:27.674Z,34208
2017-09-22T12:28:29.065Z,49600
2017-09-22T12:29:30.560Z,44864
2017-09-22T12:30:31.951Z,34528
2017-09-22T12:31:33.441Z,38400
2017-09-22T12:32:34.829Z,37376
2017-09-22T12:33:36.323Z,42976
2017-09-22T12:34:37.710Z,50176
2017-09-22T12:35:39.207Z,52864
2017-09-22T12:36:40.591Z,49984
2017-09-22T12:37:42.094Z,52448
2017-09-22T12:38:43.487Z,50304
2017-09-22T12:39:45.354Z,46016
2017-09-22T12:40:46.733Z,42848
2017-09-22T12:41:48.171Z,42336
2017-09-22T12:42:49.563Z,33056
2017-09-22T12:43:51.039Z,33056
2017-09-22T12:44:52.808Z,36064
2017-09-22T12:45:54.239Z,47328
2017-09-22T12:46:55.617Z,43392
2017-09-22T12:47:57.140Z,45952
2017-09-22T12:48:58.511Z,47744
2017-09-22T12:49:59.989Z,44064
2017-09-22T12:51:01.394Z,43840
2017-09-22T12:52:02.876Z,36896
2017-09-22T12:53:04.263Z,38976
2017-09-22T12:54:05.757Z,37856
2017-09-22T12:55:07.143Z,40896
2017-09-22T12:56:08.641Z,31136
2017-09-22T12:57:10.031Z,31264
2017-09-22T12:58:11.532Z,34976
2017-09-22T12:59:12.928Z,29216
2017-09-22T13:00:14.405Z,28896
2017-09-22T13:01:15.793Z,29280
2017-09-22T13:02:17.286Z,27008
2017-09-22T13:03:18.676Z,26784
2017-09-22T13:04:20.203Z,27360
2017-09-22T13:05:21.583Z,28160
2017-09-22T13:06:23.050Z,29472
2017-09-22T13:07:24.437Z,30816
2017-09-22T13:08:25.943Z,33472
2017-09-22T13:09:27.347Z,32256
2017-09-22T13:10:28.825Z,32672
2017-09-22T13:11:30.209Z,31872
2017-09-22T13:12:31.710Z,31904
2017-09-22T13:13:33.085Z,31008
2017-09-22T13:14:34.585Z,30048
2017-09-22T13:15:35.963Z,31200
2017-09-22T13:16:37.366Z,29856
2017-09-22T13:17:38.740Z,36576
2017-09-22T13:18:40.144Z,30400
2017-09-22T13:19:41.530Z,26624
2017-09-22T13:20:43.027Z,23744
2017-09-22T13:21:44.407Z,21728
2017-09-22T13:22:45.927Z,19968
2017-09-22T13:23:47.309Z,19040
2017-09-22T13:24:48.783Z,18464
2017-09-22T13:25:50.565Z,18208
2017-09-22T13:26:51.956Z,17920
2017-09-22T13:27:53.349Z,17588
2017-09-22T13:28:54.756Z,17620
2017-09-22T13:29:56.141Z,18560
2017-09-22T13:30:57.637Z,20384
2017-09-22T13:31:59.022Z,23008
2017-09-22T13:33:00.536Z,26848
2017-09-22T13:34:01.919Z,37504
2017-09-22T13:35:03.395Z,61856
2017-09-22T13:36:04.780Z,59296
2017-09-22T13:37:06.180Z,51840
2017-09-22T13:38:07.567Z,48992
2017-09-22T13:39:09.060Z,59072
2017-09-22T13:40:10.444Z,42176
2017-09-22T13:41:11.945Z,39424
2017-09-22T13:42:13.329Z,38304
2017-09-22T13:43:14.827Z,42016
2017-09-22T13:44:16.209Z,59552
2017-09-22T13:45:17.710Z,46976
2017-09-22T13:46:19.094Z,52512
2017-09-22T13:47:20.590Z,43040
2017-09-22T13:48:21.976Z,28864
2017-09-22T13:49:23.472Z,42048
2017-09-22T13:50:24.861Z,31072
2017-09-22T13:51:26.358Z,41728
2017-09-22T13:52:27.742Z,45760
2017-09-22T13:53:29.252Z,52352